createdAt,value
2023-03-19T00:00:43.727Z,13.30
2023-03-19T00:03:12.257Z,14.93
2023-03-19T00:05:40.668Z,14.60
2023-03-19T00:08:09.493Z,15.63
2023-03-19T00:10:40.677Z,19.17
2023-03-19T00:13:10.233Z,16.47
2023-03-19T00:15:39.968Z,15.03
2023-03-19T00:18:08.536Z,19.10
2023-03-19T00:20:37.069Z,25.50
2023-03-19T00:23:06.400Z,26.10
2023-03-19T00:25:35.170Z,30.73
2023-03-19T00:28:03.864Z,33.50
2023-03-19T00:30:32.337Z,29.40
2023-03-19T00:33:02.489Z,35.27
2023-03-19T00:35:31.167Z,32.10
2023-03-19T00:38:00.036Z,34.03
2023-03-19T00:40:28.533Z,43.70
2023-03-19T00:42:56.935Z,45.03
2023-03-19T00:45:25.365Z,52.60
2023-03-19T00:47:54.030Z,51.30
2023-03-19T00:50:25.026Z,45.37
2023-03-19T00:52:53.574Z,44.67
2023-03-19T00:55:22.104Z,37.83
2023-03-19T00:57:50.863Z,34.53
2023-03-19T01:00:19.598Z,42.33
2023-03-19T01:02:48.064Z,43.93
2023-03-19T01:05:16.531Z,56.00
2023-03-19T01:07:46.350Z,56.23
2023-03-19T01:10:14.853Z,55.43
2023-03-19T01:12:43.072Z,60.87
2023-03-19T01:15:11.991Z,58.23
2023-03-19T01:17:40.486Z,60.30
2023-03-19T01:20:13.225Z,67.13
2023-03-19T01:22:42.723Z,56.77
2023-03-19T01:25:14.277Z,60.30
2023-03-19T01:27:43.131Z,61.10
2023-03-19T01:30:12.338Z,55.40
2023-03-19T01:32:41.102Z,52.13
2023-03-19T01:35:10.158Z,44.57
2023-03-19T01:37:38.592Z,40.93
2023-03-19T01:40:09.338Z,43.40
2023-03-19T01:42:53.447Z,43.27
2023-03-19T01:45:37.102Z,46.80
2023-03-19T01:48:06.913Z,50.63
2023-03-19T01:50:42.032Z,53.27
2023-03-19T01:53:12.753Z,47.83
2023-03-19T01:55:41.930Z,46.27
2023-03-19T01:58:11.923Z,52.33
2023-03-19T02:00:40.538Z,43.53
2023-03-19T02:03:09.716Z,46.43
2023-03-19T02:05:39.191Z,54.37
2023-03-19T02:08:12.652Z,56.90
2023-03-19T02:10:42.207Z,49.97
2023-03-19T02:13:12.363Z,56.63
2023-03-19T02:15:41.237Z,65.03
2023-03-19T02:18:10.139Z,57.53
2023-03-19T02:24:04.622Z,49.33
2023-03-19T02:26:34.477Z,53.57
2023-03-19T02:29:04.220Z,56.80
2023-03-19T02:31:33.003Z,53.23
2023-03-19T02:34:04.257Z,53.77
2023-03-19T02:36:37.242Z,56.27
2023-03-19T02:39:08.671Z,56.70
2023-03-19T02:41:39.878Z,53.90
2023-03-19T02:44:09.245Z,55.73
2023-03-19T02:46:37.712Z,52.53
2023-03-19T02:49:06.646Z,70.73
2023-03-19T02:51:35.112Z,57.73
2023-03-19T02:54:03.531Z,62.73
2023-03-19T02:56:32.074Z,65.03
2023-03-19T02:59:01.860Z,64.63
2023-03-19T03:01:30.569Z,54.87
2023-03-19T03:03:59.138Z,61.47
2023-03-19T03:06:27.752Z,65.27
2023-03-19T03:08:56.589Z,56.20
2023-03-19T03:11:25.520Z,56.97
2023-03-19T03:13:54.005Z,58.90
2023-03-19T03:16:23.625Z,53.90
2023-03-19T03:18:52.067Z,58.03
2023-03-19T03:21:21.558Z,58.53
2023-03-19T03:23:50.158Z,63.80
2023-03-19T03:26:18.661Z,64.20
2023-03-19T03:28:47.613Z,73.37
2023-03-19T03:31:16.937Z,66.77
2023-03-19T03:33:47.007Z,79.37
2023-03-19T03:36:15.410Z,67.10
2023-03-19T03:38:44.562Z,79.40
2023-03-19T03:41:13.345Z,70.97
2023-03-19T03:43:42.137Z,70.00
2023-03-19T03:46:10.651Z,65.50
2023-03-19T03:48:39.173Z,66.33
2023-03-19T03:51:09.011Z,68.63
2023-03-19T03:53:37.530Z,65.00
2023-03-19T03:56:06.393Z,56.90
2023-03-19T03:58:34.993Z,61.03
2023-03-19T04:01:03.436Z,57.10
2023-03-19T04:03:31.858Z,47.90
2023-03-19T04:06:00.454Z,50.47
2023-03-19T04:08:30.494Z,54.97
2023-03-19T04:10:59.412Z,44.83
2023-03-19T04:13:28.693Z,44.30
2023-03-19T04:15:57.660Z,46.27
2023-03-19T04:18:26.339Z,43.77
2023-03-19T04:20:54.712Z,52.80
2023-03-19T04:23:23.138Z,43.67
2023-03-19T04:25:52.761Z,48.83
2023-03-19T04:28:21.559Z,53.87
2023-03-19T04:30:50.005Z,50.20
2023-03-19T04:33:18.555Z,50.13
2023-03-19T04:35:47.125Z,56.80
2023-03-19T04:38:15.418Z,61.20
2023-03-19T04:40:43.817Z,60.13
2023-03-19T04:43:13.598Z,62.27
2023-03-19T04:45:42.231Z,63.03
2023-03-19T04:48:11.132Z,64.37
2023-03-19T04:50:40.333Z,67.77
2023-03-19T04:53:09.123Z,74.47
2023-03-19T04:55:37.692Z,76.80
2023-03-19T04:58:06.191Z,73.13
2023-03-19T05:00:35.862Z,73.00
2023-03-19T05:03:04.400Z,71.90
2023-03-19T05:05:32.892Z,82.53
2023-03-19T05:08:01.322Z,75.07
2023-03-19T05:10:29.894Z,91.60
2023-03-19T05:12:58.257Z,85.93
2023-03-19T05:15:26.702Z,81.77
2023-03-19T05:17:56.387Z,87.40
2023-03-19T05:20:25.261Z,82.57
2023-03-19T05:22:54.210Z,77.67
2023-03-19T05:25:22.847Z,78.07
2023-03-19T05:27:51.907Z,79.57
2023-03-19T05:30:20.390Z,87.13
2023-03-19T05:32:48.907Z,79.07
2023-03-19T05:35:18.761Z,75.77
2023-03-19T05:37:47.207Z,80.77
2023-03-19T05:40:16.633Z,76.67
2023-03-19T05:42:45.273Z,73.97
2023-03-19T05:45:13.800Z,73.23
2023-03-19T05:47:42.272Z,73.70
2023-03-19T05:50:11.707Z,76.00
2023-03-19T05:52:41.504Z,80.93
2023-03-19T05:55:10.716Z,78.97
2023-03-19T05:57:39.167Z,83.10
2023-03-19T06:00:09.340Z,72.40
2023-03-19T06:02:38.041Z,80.30
2023-03-19T06:05:07.443Z,71.73
2023-03-19T06:07:36.354Z,83.63
2023-03-19T06:10:06.842Z,89.67
2023-03-19T06:12:35.291Z,83.67
2023-03-19T06:15:03.731Z,75.53
2023-03-19T06:17:32.481Z,85.83
2023-03-19T06:20:01.197Z,82.57
2023-03-19T06:22:29.610Z,85.67
2023-03-19T06:24:58.044Z,89.33
2023-03-19T06:27:28.212Z,86.67
2023-03-19T06:29:56.648Z,85.27
2023-03-19T06:32:24.934Z,80.80
2023-03-19T06:34:53.373Z,90.47
2023-03-19T06:37:21.971Z,76.70
2023-03-19T06:39:51.100Z,81.77
2023-03-19T06:42:19.587Z,85.43
2023-03-19T06:44:51.199Z,88.27
2023-03-19T06:47:21.176Z,90.97
2023-03-19T06:49:49.451Z,94.23
2023-03-19T06:52:17.870Z,85.67
2023-03-19T06:54:46.586Z,93.40
2023-03-19T06:57:15.083Z,83.37
2023-03-19T06:59:43.542Z,94.70
2023-03-19T07:02:13.858Z,89.87
2023-03-19T07:04:42.368Z,94.13
2023-03-19T07:07:10.869Z,65.23
2023-03-19T07:09:39.376Z,37.93
2023-03-19T07:12:08.334Z,26.20
2023-03-19T07:14:36.720Z,26.83
2023-03-19T07:17:05.145Z,20.07
2023-03-19T07:19:34.939Z,17.90
2023-03-19T07:22:04.069Z,25.17
2023-03-19T07:24:32.462Z,26.83
2023-03-19T07:27:02.389Z,28.83
2023-03-19T07:29:30.768Z,26.40
2023-03-19T07:31:59.328Z,30.77
2023-03-19T07:34:27.701Z,24.13
2023-03-19T07:36:57.523Z,25.87
2023-03-19T07:39:25.817Z,23.53
2023-03-19T07:41:54.209Z,25.60
2023-03-19T07:44:22.678Z,29.30
2023-03-19T07:46:51.190Z,23.27
2023-03-19T07:49:19.647Z,24.73
2023-03-19T07:51:48.136Z,14.20
2023-03-19T07:54:17.852Z,20.33
2023-03-19T07:56:46.824Z,17.73
2023-03-19T07:59:15.341Z,19.77
2023-03-19T08:01:43.902Z,19.70
2023-03-19T08:04:12.670Z,17.40
2023-03-19T08:06:41.547Z,12.63
2023-03-19T08:09:10.453Z,11.67
2023-03-19T08:11:40.109Z,11.50
2023-03-19T08:14:08.570Z,12.50
2023-03-19T08:16:37.248Z,10.60
2023-03-19T08:19:05.886Z,12.47
2023-03-19T08:21:34.913Z,8.20
2023-03-19T08:24:05.034Z,6.43
2023-03-19T08:26:34.020Z,8.57
2023-03-19T08:29:04.201Z,4.60
2023-03-19T08:31:32.613Z,5.67
2023-03-19T08:34:03.571Z,4.77
2023-03-19T08:36:32.270Z,10.23
2023-03-19T08:39:01.238Z,9.90
2023-03-19T08:41:29.798Z,8.93
2023-03-19T08:43:58.262Z,2.07
2023-03-19T08:46:29.346Z,4.53
2023-03-19T08:48:58.183Z,6.77
2023-03-19T08:51:28.340Z,5.57
2023-03-19T08:53:57.127Z,7.70
2023-03-19T08:56:25.643Z,9.73
2023-03-19T08:58:54.337Z,7.57
2023-03-19T09:01:22.751Z,7.43
2023-03-19T09:03:52.652Z,10.77
2023-03-19T09:06:21.319Z,8.50
2023-03-19T09:08:49.867Z,7.50
2023-03-19T09:11:18.480Z,6.23
2023-03-19T09:13:47.079Z,6.20
2023-03-19T09:16:15.969Z,4.60
2023-03-19T09:18:44.398Z,8.67
2023-03-19T09:21:14.108Z,10.80
2023-03-19T09:23:42.633Z,11.40
2023-03-19T09:26:11.394Z,11.10
2023-03-19T09:28:40.457Z,9.17
2023-03-19T09:31:11.582Z,11.70
2023-03-19T09:33:40.663Z,8.47
2023-03-19T09:36:09.876Z,11.27
2023-03-19T09:38:39.904Z,11.03
2023-03-19T09:41:11.746Z,16.40
2023-03-19T09:43:52.084Z,11.07
2023-03-19T09:46:24.731Z,12.30
2023-03-19T09:48:57.517Z,16.37
2023-03-19T09:51:31.534Z,8.33
2023-03-19T09:54:04.106Z,15.17
2023-03-19T09:56:33.889Z,12.60
2023-03-19T09:59:03.401Z,10.93
2023-03-19T10:01:37.262Z,10.47
2023-03-19T10:04:20.106Z,11.00
2023-03-19T10:06:49.009Z,11.10
2023-03-19T10:09:35.707Z,12.13
2023-03-19T10:12:14.472Z,9.10
2023-03-19T10:15:04.682Z,5.87
2023-03-19T10:17:35.692Z,9.37
2023-03-19T10:20:09.532Z,14.00
2023-03-19T10:22:41.421Z,7.77
2023-03-19T10:25:17.126Z,8.70
2023-03-19T10:27:47.739Z,10.67
2023-03-19T10:30:18.232Z,13.27
2023-03-19T10:32:51.563Z,12.90
2023-03-19T10:35:22.983Z,12.37
2023-03-19T10:37:52.186Z,13.73
2023-03-19T10:40:27.239Z,13.70
2023-03-19T10:43:05.420Z,15.83
2023-03-19T10:45:35.846Z,19.13
2023-03-19T10:48:06.731Z,16.23
2023-03-19T10:50:39.400Z,17.63
2023-03-19T10:53:21.617Z,17.37
2023-03-19T10:55:55.860Z,14.70
2023-03-19T10:58:27.491Z,22.13
2023-03-19T11:00:59.131Z,14.17
2023-03-19T11:03:33.002Z,16.77
2023-03-19T11:06:18.386Z,16.80
2023-03-19T11:08:54.120Z,20.93
2023-03-19T11:11:33.742Z,20.33
2023-03-19T11:14:09.538Z,22.70
2023-03-19T11:16:57.534Z,17.50
2023-03-19T11:19:28.309Z,21.73
2023-03-19T11:22:10.478Z,16.80
2023-03-19T11:24:41.128Z,16.33
2023-03-19T11:27:12.628Z,19.67
2023-03-19T11:29:43.487Z,18.47
2023-03-19T11:32:27.772Z,22.60
2023-03-19T11:35:01.462Z,17.07
2023-03-19T11:37:38.600Z,22.57
2023-03-19T11:40:13.393Z,18.97
2023-03-19T11:42:57.306Z,22.70
2023-03-19T11:45:34.981Z,18.37
2023-03-19T11:48:28.822Z,18.83
2023-03-19T11:51:02.691Z,18.90
2023-03-19T11:53:35.982Z,18.03
2023-03-19T11:56:15.450Z,16.83
2023-03-19T11:59:19.135Z,13.33
2023-03-19T12:02:18.586Z,14.50
2023-03-19T12:05:16.165Z,10.77
2023-03-19T12:07:49.936Z,13.83
2023-03-19T12:10:41.527Z,10.43
2023-03-19T12:13:19.765Z,11.93
2023-03-19T12:15:57.240Z,21.60
2023-03-19T12:18:41.482Z,11.33
2023-03-19T12:21:16.602Z,15.57
2023-03-19T12:23:58.254Z,9.90
2023-03-19T12:26:32.569Z,10.83
2023-03-19T12:29:09.797Z,13.90
2023-03-19T12:31:51.827Z,10.87
2023-03-19T12:34:30.022Z,7.40
2023-03-19T12:37:13.600Z,12.83
2023-03-19T12:39:45.809Z,15.93
2023-03-19T12:42:18.923Z,12.30
2023-03-19T12:44:52.730Z,12.10
2023-03-19T12:47:27.021Z,13.43
2023-03-19T12:49:58.630Z,25.53
2023-03-19T12:52:32.888Z,12.27
2023-03-19T12:55:07.373Z,23.07
2023-03-19T12:57:40.569Z,16.03
2023-03-19T13:00:16.760Z,13.63
2023-03-19T13:02:54.186Z,12.23
2023-03-19T13:05:31.133Z,15.43
2023-03-19T13:08:04.454Z,11.10
2023-03-19T13:10:33.693Z,16.57
2023-03-19T13:13:08.160Z,13.97
2023-03-19T13:15:41.314Z,19.70
2023-03-19T13:18:30.650Z,21.97
2023-03-19T13:21:11.737Z,15.50
2023-03-19T13:23:43.052Z,17.00
2023-03-19T13:26:13.977Z,19.37
2023-03-19T13:29:00.160Z,17.50
2023-03-19T13:31:29.650Z,13.80
2023-03-19T13:34:05.212Z,14.27
2023-03-19T13:36:39.481Z,17.57
2023-03-19T13:39:16.203Z,18.10
2023-03-19T13:41:52.737Z,19.33
2023-03-19T13:44:42.440Z,21.10
2023-03-19T13:47:39.665Z,16.93
2023-03-19T13:50:28.394Z,19.10
2023-03-19T13:53:21.483Z,15.03
2023-03-19T13:55:58.730Z,20.43
2023-03-19T13:58:45.272Z,15.03
2023-03-19T14:01:37.992Z,16.60
2023-03-19T14:04:08.224Z,15.17
2023-03-19T14:06:42.571Z,17.37
2023-03-19T14:09:38.970Z,16.73
2023-03-19T14:12:26.374Z,14.40
2023-03-19T14:14:58.056Z,13.90
2023-03-19T14:17:31.707Z,15.70
2023-03-19T14:20:09.246Z,12.53
2023-03-19T14:22:41.426Z,16.50
2023-03-19T14:25:18.220Z,12.53
2023-03-19T14:27:49.053Z,16.53
2023-03-19T14:30:30.937Z,8.03
2023-03-19T14:33:02.617Z,19.07
2023-03-19T14:35:36.740Z,11.43
2023-03-19T14:38:13.612Z,19.97
2023-03-19T14:40:46.687Z,11.33
2023-03-19T14:43:25.387Z,10.87
2023-03-19T14:46:00.639Z,13.33
2023-03-19T14:48:57.884Z,17.97
2023-03-19T14:51:51.618Z,11.10
2023-03-19T14:54:35.086Z,13.40
2023-03-19T14:57:08.942Z,11.73
2023-03-19T14:59:41.070Z,18.73
2023-03-19T15:02:26.470Z,11.30
2023-03-19T15:04:56.180Z,13.43
2023-03-19T15:07:31.617Z,17.60
2023-03-19T15:10:06.585Z,10.17
2023-03-19T15:13:04.099Z,15.50
2023-03-19T15:15:54.336Z,8.87
2023-03-19T15:18:23.515Z,9.30
2023-03-19T15:20:55.460Z,15.80
2023-03-19T15:23:28.220Z,13.63
2023-03-19T15:26:01.236Z,9.17
2023-03-19T15:28:31.210Z,10.87
2023-03-19T15:31:14.173Z,12.10
2023-03-19T15:33:50.188Z,11.80
2023-03-19T15:36:24.231Z,9.03
2023-03-19T15:38:57.157Z,12.37
2023-03-19T15:41:29.881Z,11.07
2023-03-19T15:43:58.512Z,13.53
2023-03-19T15:46:35.625Z,9.97
2023-03-19T15:49:08.302Z,15.60
2023-03-19T15:51:36.908Z,12.03
2023-03-19T15:54:06.771Z,12.37
2023-03-19T15:56:36.739Z,22.03
2023-03-19T15:59:05.909Z,11.60
2023-03-19T16:01:35.319Z,13.87
2023-03-19T16:04:06.949Z,12.47
2023-03-19T16:06:39.551Z,10.17
2023-03-19T16:09:23.805Z,13.30
2023-03-19T16:11:54.637Z,10.00
2023-03-19T16:14:28.111Z,14.73
2023-03-19T16:17:03.459Z,10.60
2023-03-19T16:19:34.700Z,12.87
2023-03-19T16:22:05.822Z,9.77
2023-03-19T16:24:37.649Z,11.20
2023-03-19T16:27:12.736Z,16.27
2023-03-19T16:29:43.500Z,12.00
2023-03-19T16:32:21.892Z,12.97
2023-03-19T16:34:52.825Z,11.13
2023-03-19T16:37:35.030Z,14.47
2023-03-19T16:40:17.084Z,10.37
2023-03-19T16:42:48.198Z,8.50
2023-03-19T16:45:22.522Z,12.67
2023-03-19T16:47:52.578Z,11.80
2023-03-19T16:50:22.672Z,10.37
2023-03-19T16:52:51.306Z,18.40
2023-03-19T16:55:24.742Z,12.43
2023-03-19T16:57:58.942Z,14.93
2023-03-19T17:00:31.749Z,14.00
2023-03-19T17:03:01.662Z,8.13
2023-03-19T17:05:31.047Z,13.63
2023-03-19T17:07:59.692Z,16.20
2023-03-19T17:10:30.162Z,15.53
2023-03-19T17:13:01.374Z,14.27
2023-03-19T17:15:33.042Z,16.97
2023-03-19T17:18:03.948Z,9.93
2023-03-19T17:20:34.317Z,15.87
2023-03-19T17:23:03.244Z,11.80
2023-03-19T17:25:32.091Z,20.87
2023-03-19T17:28:02.349Z,13.67
2023-03-19T17:30:30.963Z,15.27
2023-03-19T17:32:59.891Z,15.63
2023-03-19T17:35:28.454Z,16.47
2023-03-19T17:37:57.235Z,17.47
2023-03-19T17:40:28.304Z,11.30
2023-03-19T17:42:57.390Z,18.10
2023-03-19T17:45:29.975Z,17.00
2023-03-19T17:47:59.636Z,15.40
2023-03-19T17:50:31.379Z,12.47
2023-03-19T17:53:00.232Z,20.97
2023-03-19T17:55:30.611Z,16.17
2023-03-19T17:57:59.234Z,14.93
2023-03-19T18:00:28.951Z,17.97
2023-03-19T18:02:57.970Z,18.03
2023-03-19T18:05:27.554Z,16.77
2023-03-19T18:07:58.405Z,21.03
2023-03-19T18:10:30.360Z,27.27
2023-03-19T18:13:00.570Z,30.40
2023-03-19T18:15:31.626Z,29.17
2023-03-19T18:18:01.824Z,27.23
2023-03-19T18:20:34.725Z,15.70
2023-03-19T18:23:04.193Z,23.90
2023-03-19T18:25:35.532Z,22.83
2023-03-19T18:28:05.769Z,22.63
2023-03-19T18:30:38.059Z,19.33
2023-03-19T18:33:09.278Z,22.63
2023-03-19T18:35:40.913Z,27.23
2023-03-19T18:38:16.025Z,18.23
2023-03-19T18:40:44.814Z,22.93
2023-03-19T18:43:15.957Z,27.83
2023-03-19T18:45:49.240Z,30.50
2023-03-19T18:48:26.015Z,27.03
2023-03-19T18:50:55.474Z,24.20
2023-03-19T18:53:24.739Z,26.43
2023-03-19T18:55:53.552Z,23.97
2023-03-19T18:58:23.602Z,26.83
2023-03-19T19:00:54.514Z,28.97
2023-03-19T19:03:28.583Z,26.53
2023-03-19T19:05:57.334Z,27.93
2023-03-19T19:08:26.868Z,30.13
2023-03-19T19:10:59.887Z,35.50
2023-03-19T19:13:31.253Z,37.03
2023-03-19T19:16:01.695Z,35.30
2023-03-19T19:18:33.038Z,48.60
2023-03-19T19:21:02.233Z,38.87
2023-03-19T19:23:31.570Z,37.27
2023-03-19T19:26:00.083Z,32.83
2023-03-19T19:28:32.880Z,29.50
2023-03-19T19:31:02.888Z,24.17
2023-03-19T19:33:34.878Z,23.43
2023-03-19T19:36:03.637Z,31.80
2023-03-19T19:38:32.309Z,48.10
2023-03-19T19:41:01.014Z,50.53
2023-03-19T19:43:31.609Z,65.77
2023-03-19T19:46:00.508Z,49.70
2023-03-19T19:48:31.584Z,53.10
2023-03-19T19:51:00.697Z,42.43
2023-03-19T19:53:29.607Z,39.97
2023-03-19T19:55:58.554Z,32.10
2023-03-19T19:58:30.984Z,26.43
2023-03-19T20:01:03.763Z,28.83
2023-03-19T20:03:35.612Z,26.67
2023-03-19T20:06:04.416Z,38.93
2023-03-19T20:08:32.916Z,36.50
2023-03-19T20:11:02.217Z,38.83
2023-03-19T20:13:33.682Z,34.00
2023-03-19T20:16:02.972Z,42.93
2023-03-19T20:18:35.840Z,39.07
2023-03-19T20:21:05.149Z,33.60
2023-03-19T20:23:33.735Z,35.63
2023-03-19T20:26:03.516Z,36.47
2023-03-19T20:28:35.569Z,34.13
2023-03-19T20:31:05.578Z,33.40
2023-03-19T20:33:37.374Z,31.63
2023-03-19T20:36:06.620Z,29.53
2023-03-19T20:38:36.728Z,26.47
2023-03-19T20:41:05.146Z,28.20
2023-03-19T20:43:35.437Z,30.17
2023-03-19T20:46:05.865Z,31.93
2023-03-19T20:48:35.958Z,26.10
2023-03-19T20:51:04.747Z,28.30
2023-03-19T20:53:33.393Z,24.33
2023-03-19T20:56:03.416Z,27.70
2023-03-19T20:58:33.846Z,32.23
2023-03-19T21:01:02.879Z,27.87
2023-03-19T21:03:32.809Z,24.83
2023-03-19T21:06:05.313Z,27.10
2023-03-19T21:08:37.313Z,25.90
2023-03-19T21:11:06.060Z,27.97
2023-03-19T21:13:34.504Z,21.03
2023-03-19T21:16:03.694Z,25.20
2023-03-19T21:18:32.172Z,21.87
2023-03-19T21:21:02.084Z,27.63
2023-03-19T21:23:34.825Z,16.47
2023-03-19T21:26:09.585Z,20.93
2023-03-19T21:28:39.624Z,22.67
2023-03-19T21:31:11.738Z,20.53
2023-03-19T21:33:41.197Z,17.70
2023-03-19T21:36:11.674Z,20.97
2023-03-19T21:38:40.143Z,17.53
2023-03-19T21:41:16.578Z,17.60
2023-03-19T21:43:47.649Z,16.77
2023-03-19T21:46:24.408Z,24.63
2023-03-19T21:48:53.703Z,25.93
2023-03-19T21:51:25.239Z,22.20
2023-03-19T21:53:53.873Z,17.93
2023-03-19T21:56:24.256Z,17.77
2023-03-19T21:58:53.716Z,20.00
2023-03-19T22:01:24.396Z,18.70
2023-03-19T22:03:53.360Z,22.80
2023-03-19T22:06:24.252Z,26.93
2023-03-19T22:08:54.672Z,20.53
2023-03-19T22:11:27.198Z,19.50
2023-03-19T22:13:56.763Z,18.87
2023-03-19T22:16:26.264Z,18.57
2023-03-19T22:18:54.811Z,21.30
2023-03-19T22:21:24.781Z,19.47
2023-03-19T22:23:53.534Z,18.50
2023-03-19T22:26:33.399Z,19.87
2023-03-19T22:29:05.090Z,22.33
2023-03-19T22:31:34.397Z,21.00
2023-03-19T22:34:03.062Z,19.03
2023-03-19T22:36:32.694Z,17.10
2023-03-19T22:39:01.114Z,20.30
2023-03-19T22:41:34.177Z,20.47
2023-03-19T22:44:05.291Z,19.07
2023-03-19T22:46:34.327Z,17.23
2023-03-19T22:49:03.545Z,22.00
2023-03-19T22:51:33.271Z,20.67
2023-03-19T22:54:01.712Z,19.77
2023-03-19T22:56:30.118Z,17.97
2023-03-19T22:58:58.771Z,22.83
2023-03-19T23:01:40.636Z,20.77
2023-03-19T23:04:19.144Z,20.97
2023-03-19T23:06:49.539Z,28.77
2023-03-19T23:09:19.555Z,16.70
2023-03-19T23:11:49.407Z,20.33
2023-03-19T23:14:29.101Z,23.97
2023-03-19T23:16:59.911Z,23.23
2023-03-19T23:19:30.331Z,22.87
2023-03-19T23:22:00.798Z,17.20
2023-03-19T23:24:30.542Z,21.80
2023-03-19T23:27:00.976Z,19.43
2023-03-19T23:29:32.458Z,22.20
2023-03-19T23:32:01.426Z,19.33
2023-03-19T23:34:30.086Z,20.80
2023-03-19T23:37:00.064Z,25.23
2023-03-19T23:39:28.899Z,23.90
2023-03-19T23:42:00.318Z,26.30
2023-03-19T23:44:29.523Z,22.80
2023-03-19T23:47:02.971Z,24.83
2023-03-19T23:49:33.603Z,25.23
2023-03-19T23:52:05.264Z,26.50
2023-03-19T23:54:36.691Z,26.20
2023-03-19T23:57:07.305Z,29.53
2023-03-19T23:59:38.215Z,31.53
